Time;durP1;ratioP1;P1;durP2;ratioP2;P2;SDS_P1;SDS_P2;PMS_P1;PMS_P2;Temp;Humidity;BMP_temperature;BMP_pressure;BME280_temperature;BME280_humidity;BME280_pressure;Samples;Min_cycle;Max_cycle;Signal;HPM_P1;HPM_P2
2022/03/05 00:02:15;;;;;;;3.90;2.70;;;16.40;37.30;15.50;101841.00;;;;5057720;28;20053;-73
2022/03/05 00:05:01;;;;;;;4.38;3.22;;;16.40;37.30;15.50;101840.00;;;;5058311;28;20049;-73
2022/03/05 00:07:47;;;;;;;5.05;3.03;;;16.40;37.30;15.50;101847.00;;;;5042866;28;20032;-73
2022/03/05 00:10:33;;;;;;;4.40;3.15;;;16.40;37.30;15.50;101840.00;;;;5046695;28;20452;-73
2022/03/05 00:13:19;;;;;;;3.97;2.97;;;16.40;37.30;15.50;101842.00;;;;5058203;28;20037;-73
2022/03/05 00:16:05;;;;;;;5.20;2.90;;;16.40;37.30;15.50;101839.00;;;;5057925;28;20438;-73
2022/03/05 00:18:52;;;;;;;4.05;2.88;;;16.40;37.30;15.50;101837.00;;;;5059201;28;20036;-73
2022/03/05 00:21:38;;;;;;;3.25;2.80;;;16.40;37.30;15.40;101843.00;;;;5058689;28;20040;-73
2022/03/05 00:24:24;;;;;;;4.28;2.80;;;16.40;37.30;15.50;101833.00;;;;5063387;28;20048;-73
2022/03/05 00:27:10;;;;;;;3.17;2.42;;;16.30;37.30;15.40;101828.00;;;;5061230;28;20050;-73
2022/03/05 00:29:56;;;;;;;3.50;2.67;;;16.40;37.30;15.40;101829.00;;;;5055470;28;20060;-73
2022/03/05 00:32:42;;;;;;;5.05;2.78;;;16.30;37.30;15.40;101833.00;;;;5055239;28;20455;-73
2022/03/05 00:35:29;;;;;;;6.40;3.10;;;16.30;37.30;15.40;101825.00;;;;5045877;28;20742;-73
2022/03/05 00:38:16;;;;;;;5.78;2.80;;;16.30;37.30;15.40;101826.00;;;;5057945;28;20044;-73
2022/03/05 00:41:02;;;;;;;5.03;3.00;;;16.40;37.40;15.40;101824.00;;;;5042905;28;20219;-73
2022/03/05 00:43:49;;;;;;;5.05;3.20;;;16.30;37.30;15.40;101835.00;;;;5039715;28;20848;-73
2022/03/05 00:46:35;;;;;;;4.20;3.00;;;16.30;37.30;15.40;101828.00;;;;5062121;28;20777;-73
2022/03/05 00:49:21;;;;;;;4.38;2.72;;;16.30;37.30;15.40;101830.00;;;;5055481;28;20041;-73
2022/03/05 00:52:07;;;;;;;5.07;2.92;;;16.30;37.30;15.40;101825.00;;;;5055720;28;20052;-73
2022/03/05 00:54:54;;;;;;;3.42;2.85;;;16.30;37.30;15.40;101825.00;;;;5057636;28;20060;-73
2022/03/05 00:57:40;;;;;;;4.72;3.15;;;16.30;37.30;15.40;101824.00;;;;5044853;28;20041;-73
2022/03/05 01:00:26;;;;;;;4.95;3.05;;;16.30;37.30;15.40;101825.00;;;;5060559;28;20115;-73
2022/03/05 01:03:12;;;;;;;4.78;2.88;;;16.30;37.30;15.40;101815.00;;;;5046069;28;20068;-74
2022/03/05 01:05:58;;;;;;;3.25;2.50;;;16.30;37.30;15.30;101813.00;;;;5059941;28;20051;-74
2022/03/05 01:08:44;;;;;;;3.85;2.70;;;16.30;37.30;15.30;101819.00;;;;5059156;28;20040;-74
2022/03/05 01:11:30;;;;;;;3.22;2.55;;;16.30;37.30;15.30;101813.00;;;;5061017;28;20045;-73
2022/03/05 01:14:16;;;;;;;4.45;2.90;;;16.20;37.30;15.30;101820.00;;;;5047550;28;20044;-73
2022/03/05 01:17:03;;;;;;;3.60;2.47;;;16.20;37.30;15.30;101817.00;;;;5059135;28;20032;-73
2022/03/05 01:19:49;;;;;;;4.18;2.88;;;16.20;37.40;15.30;101813.00;;;;5056502;28;20482;-73
2022/03/05 01:22:35;;;;;;;3.95;2.65;;;16.20;37.30;15.30;101812.00;;;;5056279;28;20045;-73
2022/03/05 01:25:21;;;;;;;3.67;2.38;;;16.20;37.40;15.30;101812.00;;;;5056022;28;20106;-73
2022/03/05 01:28:07;;;;;;;5.65;3.15;;;16.20;37.40;15.30;101807.00;;;;5045680;28;20189;-73
2022/03/05 01:30:53;;;;;;;3.20;2.38;;;16.10;37.30;15.30;101803.00;;;;5052533;28;20213;-73
2022/03/05 01:33:39;;;;;;;5.65;2.65;;;16.20;37.40;15.30;101808.00;;;;5056739;28;20045;-73
2022/03/05 01:36:25;;;;;;;4.93;2.80;;;16.30;37.50;15.30;101808.00;;;;5056330;28;20487;-73
2022/03/05 01:39:12;;;;;;;4.82;2.60;;;16.20;37.40;15.30;101802.00;;;;5053900;28;20045;-73
2022/03/05 01:41:58;;;;;;;4.63;2.80;;;16.20;37.40;15.30;101798.00;;;;5054623;28;20040;-73
2022/03/05 01:44:44;;;;;;;3.92;2.40;;;16.20;37.50;15.30;101797.00;;;;5054084;28;20044;-73
2022/03/05 01:47:30;;;;;;;3.85;2.63;;;16.20;37.50;15.30;101804.00;;;;5058196;28;20440;-73
2022/03/05 01:50:16;;;;;;;4.63;3.03;;;16.10;37.50;15.20;101802.00;;;;5052976;28;20044;-73
2022/03/05 01:53:02;;;;;;;3.42;2.58;;;16.10;37.50;15.20;101797.00;;;;5056929;28;20040;-73
2022/03/05 01:55:48;;;;;;;4.45;3.10;;;16.10;37.50;15.20;101797.00;;;;5044901;28;20036;-73
2022/03/05 01:58:34;;;;;;;5.28;3.05;;;16.10;37.50;15.20;101798.00;;;;5059061;28;20478;-73
2022/03/05 02:01:22;;;;;;;5.70;2.70;;;16.10;37.50;15.20;101792.00;;;;5057703;28;20056;-73
2022/03/05 02:04:11;;;;;;;4.15;2.75;;;16.10;38.20;15.20;101795.00;;;;5038796;28;20449;-73
2022/03/05 02:06:57;;;;;;;3.92;2.88;;;16.10;37.50;15.20;101793.00;;;;5056641;28;20033;-73
2022/03/05 02:09:43;;;;;;;5.38;3.10;;;16.10;37.50;15.20;101797.00;;;;5039941;28;20040;-73
2022/03/05 02:12:33;;;;;;;4.68;2.70;;;16.10;37.50;15.20;101798.00;;;;5057275;28;20041;-73
2022/03/05 02:15:22;;;;;;;3.33;2.83;;;16.10;37.50;15.20;101799.00;;;;5034988;28;20055;-73
2022/03/05 02:18:08;;;;;;;4.80;3.10;;;16.10;37.50;15.20;101789.00;;;;5054552;28;20044;-73
2022/03/05 02:20:55;;;;;;;4.47;2.90;;;16.10;37.60;15.20;101792.00;;;;5044396;28;20371;-73
2022/03/05 02:23:41;;;;;;;4.88;2.83;;;16.10;37.50;15.10;101786.00;;;;5053658;28;20379;-73
2022/03/05 02:26:27;;;;;;;4.15;3.08;;;16.00;37.50;15.10;101786.00;;;;5040680;28;20037;-73
2022/03/05 02:29:13;;;;;;;4.38;2.58;;;16.00;37.50;15.10;101781.00;;;;5055079;28;20155;-73
2022/03/05 02:31:59;;;;;;;5.13;3.17;;;16.00;37.60;15.10;101787.00;;;;5055236;28;20478;-73
2022/03/05 02:34:45;;;;;;;4.03;2.50;;;16.00;37.50;15.10;101781.00;;;;5038129;28;20087;-73
2022/03/05 02:37:31;;;;;;;4.53;3.05;;;16.00;37.50;15.10;101782.00;;;;5046521;28;20082;-73
2022/03/05 02:40:17;;;;;;;4.18;2.72;;;16.00;37.50;15.10;101782.00;;;;5061241;28;20052;-73
2022/03/05 02:43:03;;;;;;;3.95;2.75;;;16.00;37.50;15.10;101776.00;;;;5050857;28;20036;-73
2022/03/05 02:45:52;;;;;;;5.72;3.03;;;16.00;37.50;15.10;101771.00;;;;5059743;28;20044;-73
2022/03/05 02:48:38;;;;;;;4.80;2.50;;;15.90;37.50;15.10;101777.00;;;;5056500;28;20483;-74
2022/03/05 02:51:24;;;;;;;5.07;2.75;;;15.90;37.50;15.10;101767.00;;;;5038966;28;20037;-73
2022/03/05 02:54:10;;;;;;;5.25;3.08;;;15.90;37.50;15.00;101773.00;;;;5053219;28;20052;-73
2022/03/05 02:56:56;;;;;;;4.90;3.08;;;15.90;37.50;15.10;101765.00;;;;5058999;28;20036;-73
2022/03/05 02:59:42;;;;;;;4.90;2.85;;;15.90;37.50;15.00;101766.00;;;;5062788;28;20036;-73
2022/03/05 03:02:29;;;;;;;4.93;3.28;;;15.90;37.50;15.00;101768.00;;;;5052679;28;20445;-73
2022/03/05 03:05:16;;;;;;;5.38;3.25;;;15.90;37.50;15.00;101762.00;;;;5056919;28;20395;-73
2022/03/05 03:08:02;;;;;;;4.18;2.88;;;15.90;37.50;15.00;101757.00;;;;5047561;28;20051;-73
2022/03/05 03:10:48;;;;;;;5.57;3.55;;;15.90;37.50;15.00;101754.00;;;;5056387;28;20036;-73
2022/03/05 03:13:34;;;;;;;6.55;3.58;;;15.90;37.50;15.00;101756.00;;;;5045872;28;20063;-73
2022/03/05 03:16:20;;;;;;;6.20;3.75;;;15.90;37.50;15.00;101762.00;;;;5042755;28;20041;-73
2022/03/05 03:19:06;;;;;;;5.68;3.50;;;15.90;37.50;15.00;101760.00;;;;5043349;28;20052;-73
2022/03/05 03:21:52;;;;;;;4.38;3.22;;;15.90;37.50;15.00;101761.00;;;;5052032;28;20048;-73
2022/03/05 03:24:38;;;;;;;5.45;3.78;;;15.90;37.60;15.00;101759.00;;;;5060915;28;20054;-73
2022/03/05 03:27:24;;;;;;;6.65;3.85;;;15.90;37.60;15.00;101764.00;;;;5058353;28;20056;-73
2022/03/05 03:30:11;;;;;;;6.20;3.60;;;15.90;37.60;15.00;101759.00;;;;5045994;28;20095;-73
2022/03/05 03:32:57;;;;;;;5.75;3.42;;;15.90;37.60;15.00;101765.00;;;;5029349;28;20376;-73
2022/03/05 03:35:43;;;;;;;6.13;3.45;;;15.90;37.60;15.00;101762.00;;;;5042251;28;20041;-73
2022/03/05 03:38:29;;;;;;;5.53;3.63;;;15.90;37.60;15.00;101756.00;;;;5056738;28;20041;-73
2022/03/05 03:41:16;;;;;;;5.00;3.00;;;15.80;37.50;15.00;101770.00;;;;5057173;28;20045;-73
2022/03/05 03:44:02;;;;;;;5.55;3.80;;;15.80;37.50;15.00;101761.00;;;;5061547;28;20123;-73
2022/03/05 03:46:48;;;;;;;8.00;4.07;;;15.80;37.60;15.00;101766.00;;;;5062160;28;20063;-73
2022/03/05 03:49:34;;;;;;;7.00;4.13;;;15.80;37.60;15.00;101775.00;;;;5044536;28;20044;-73
2022/03/05 03:52:20;;;;;;;6.90;4.00;;;15.80;37.60;14.90;101773.00;;;;5060761;28;20060;-73
2022/03/05 03:55:08;;;;;;;6.85;4.30;;;15.80;37.50;14.90;101777.00;;;;5059999;28;20393;-73
2022/03/05 03:57:54;;;;;;;8.45;4.00;;;15.80;37.50;14.90;101776.00;;;;5045901;28;20048;-73
2022/03/05 04:00:41;;;;;;;7.70;4.10;;;15.80;37.50;14.90;101767.00;;;;5048790;28;20063;-73
2022/03/05 04:03:27;;;;;;;5.45;3.60;;;15.80;37.50;14.90;101772.00;;;;5054356;28;20048;-73
2022/03/05 04:06:13;;;;;;;8.80;4.72;;;15.80;37.50;14.90;101768.00;;;;5044772;28;20071;-73
2022/03/05 04:08:59;;;;;;;7.60;3.97;;;15.80;37.60;14.90;101774.00;;;;5056427;28;20098;-73
2022/03/05 04:11:47;;;;;;;6.35;4.15;;;15.80;37.60;14.90;101779.00;;;;5053661;28;20422;-73
2022/03/05 04:14:33;;;;;;;7.15;4.18;;;15.80;37.60;14.90;101778.00;;;;5059935;28;20071;-73
2022/03/05 04:17:20;;;;;;;6.45;4.07;;;15.80;37.60;14.90;101779.00;;;;5058542;28;20127;-73
2022/03/05 04:20:10;;;;;;;6.85;3.65;;;15.80;37.60;14.90;101790.00;;;;5042458;28;20045;-73
2022/03/05 04:22:58;;;;;;;7.65;4.68;;;15.80;37.50;14.90;101785.00;;;;5057517;28;20497;-73
2022/03/05 04:25:44;;;;;;;7.30;4.43;;;15.80;37.50;14.90;101785.00;;;;5060138;28;20591;-73
2022/03/05 04:28:30;;;;;;;7.03;4.40;;;15.80;37.50;14.90;101789.00;;;;5056708;28;20048;-73
2022/03/05 04:31:16;;;;;;;6.25;4.25;;;15.70;37.40;14.90;101775.00;;;;5057440;28;20131;-73
2022/03/05 04:34:02;;;;;;;8.90;4.25;;;15.80;37.50;14.90;101782.00;;;;5047233;28;20033;-73
2022/03/05 04:36:48;;;;;;;7.57;4.22;;;15.70;37.40;14.90;101782.00;;;;5053831;28;20247;-73
2022/03/05 04:39:34;;;;;;;7.25;4.63;;;15.80;37.50;14.90;101775.00;;;;5058390;28;20044;-73
2022/03/05 04:42:20;;;;;;;7.55;4.45;;;15.80;37.50;14.90;101786.00;;;;5039294;28;20048;-73
2022/03/05 04:45:08;;;;;;;8.18;4.32;;;15.80;37.50;14.90;101775.00;;;;5059334;28;20052;-73
2022/03/05 04:47:54;;;;;;;7.32;4.65;;;15.70;37.50;14.90;101787.00;;;;5056874;28;20119;-73
2022/03/05 04:50:40;;;;;;;7.28;4.25;;;15.70;38.20;14.90;101787.00;;;;5036136;28;20391;-73
2022/03/05 04:53:26;;;;;;;6.13;4.20;;;15.80;37.50;14.90;101791.00;;;;5057138;28;20458;-73
2022/03/05 04:56:12;;;;;;;7.53;4.50;;;15.70;37.50;14.80;101788.00;;;;5058883;28;20413;-73
2022/03/05 04:58:58;;;;;;;7.00;4.10;;;15.70;37.40;14.80;101787.00;;;;5057885;28;20126;-73
2022/03/05 05:01:44;;;;;;;7.72;5.13;;;15.70;37.40;14.80;101786.00;;;;5039964;28;20040;-73
2022/03/05 05:04:31;;;;;;;9.23;5.30;;;15.70;37.40;14.80;101788.00;;;;5061077;28;20049;-73
2022/03/05 05:07:17;;;;;;;7.13;4.65;;;15.70;37.40;14.80;101775.00;;;;5056237;28;20047;-73
2022/03/05 05:10:03;;;;;;;7.25;4.85;;;15.70;37.40;14.80;101778.00;;;;5060315;28;20051;-73
2022/03/05 05:12:50;;;;;;;7.60;4.68;;;15.70;37.40;14.80;101778.00;;;;5043560;28;20049;-73
2022/03/05 05:15:36;;;;;;;7.65;4.63;;;15.70;37.40;14.80;101782.00;;;;5057938;28;20127;-73
2022/03/05 05:18:22;;;;;;;7.15;4.32;;;15.70;37.40;14.80;101784.00;;;;5045696;28;20044;-73
2022/03/05 05:21:08;;;;;;;6.72;4.63;;;15.70;37.40;14.80;101779.00;;;;5041647;28;20497;-73
2022/03/05 05:23:54;;;;;;;8.55;5.10;;;15.70;37.40;14.80;101778.00;;;;5059930;28;20538;-73
2022/03/05 05:26:40;;;;;;;8.85;5.45;;;15.70;37.40;14.80;101782.00;;;;5064012;28;20047;-73
2022/03/05 05:29:26;;;;;;;8.40;5.07;;;15.70;37.40;14.80;101782.00;;;;5042431;28;20045;-73
2022/03/05 05:32:12;;;;;;;7.32;4.93;;;15.70;37.40;14.80;101787.00;;;;5043893;28;20147;-73
2022/03/05 05:34:58;;;;;;;7.63;4.80;;;15.70;37.40;14.80;101786.00;;;;5040790;28;20103;-73
2022/03/05 05:37:45;;;;;;;7.78;4.88;;;15.70;37.40;14.80;101783.00;;;;5056040;28;20051;-73
2022/03/05 05:40:31;;;;;;;7.72;4.57;;;15.70;37.40;14.80;101779.00;;;;5062916;28;20265;-73
2022/03/05 05:43:17;;;;;;;6.93;4.68;;;15.70;37.40;14.80;101784.00;;;;5060157;28;20033;-73
2022/03/05 05:46:03;;;;;;;8.95;4.97;;;15.70;37.40;14.80;101790.00;;;;5060339;28;20052;-73
2022/03/05 05:48:49;;;;;;;6.93;4.60;;;15.70;37.40;14.80;101781.00;;;;5043474;28;20047;-73
2022/03/05 05:51:35;;;;;;;9.25;5.15;;;15.70;37.40;14.80;101783.00;;;;5058705;28;20040;-73
2022/03/05 05:54:23;;;;;;;7.68;5.15;;;15.70;37.40;14.80;101789.00;;;;5057401;28;20518;-73
2022/03/05 05:57:09;;;;;;;8.38;5.10;;;15.70;37.40;14.80;101787.00;;;;5046212;28;20044;-73
2022/03/05 05:59:55;;;;;;;6.32;4.30;;;15.70;37.40;14.80;101787.00;;;;5058736;28;20383;-74
2022/03/05 06:02:41;;;;;;;8.27;4.93;;;15.70;37.40;14.80;101783.00;;;;5046275;28;20048;-73
2022/03/05 06:05:27;;;;;;;7.35;4.85;;;15.70;37.30;14.80;101785.00;;;;5059336;28;20291;-73
2022/03/05 06:08:13;;;;;;;7.50;5.32;;;15.70;37.30;14.80;101789.00;;;;5058340;28;20051;-73
2022/03/05 06:10:59;;;;;;;8.57;5.60;;;15.80;37.40;14.80;101790.00;;;;5061672;28;20090;-74
2022/03/05 06:13:45;;;;;;;9.80;5.43;;;15.70;37.30;14.80;101787.00;;;;5037539;28;20043;-73
2022/03/05 06:16:32;;;;;;;8.20;5.55;;;15.80;37.30;14.80;101800.00;;;;5054360;28;20045;-73
2022/03/05 06:19:18;;;;;;;8.35;5.10;;;15.80;37.30;14.80;101796.00;;;;5055667;28;20040;-73
2022/03/05 06:22:04;;;;;;;9.07;5.55;;;15.70;37.20;14.80;101796.00;;;;5053971;28;20051;-73
2022/03/05 06:24:50;;;;;;;7.50;5.20;;;15.70;37.20;14.80;101794.00;;;;5054101;28;20049;-73
2022/03/05 06:27:36;;;;;;;8.32;5.35;;;15.70;37.20;14.80;101801.00;;;;5060314;28;20398;-73
2022/03/05 06:30:22;;;;;;;8.50;5.20;;;15.80;37.20;14.80;101800.00;;;;5049893;28;20056;-73
2022/03/05 06:33:08;;;;;;;9.85;5.80;;;15.70;37.20;14.80;101803.00;;;;5042257;28;20461;-73
2022/03/05 06:35:58;;;;;;;9.32;5.57;;;15.80;37.20;14.80;101802.00;;;;5053170;28;20037;-73
2022/03/05 06:38:44;;;;;;;7.70;5.47;;;15.70;37.10;14.80;101798.00;;;;5052918;28;20048;-73
2022/03/05 06:41:30;;;;;;;8.75;5.57;;;15.80;37.20;14.80;101804.00;;;;5052690;28;20075;-73
2022/03/05 06:44:16;;;;;;;8.88;5.43;;;15.70;37.10;14.80;101801.00;;;;5057420;28;20059;-73
2022/03/05 06:47:03;;;;;;;11.00;6.20;;;15.70;37.20;14.80;101800.00;;;;5054620;28;20489;-73
2022/03/05 06:49:49;;;;;;;9.20;5.90;;;15.70;37.10;14.80;101809.00;;;;5054912;28;20072;-73
2022/03/05 06:52:35;;;;;;;11.52;5.57;;;15.70;37.10;14.80;101814.00;;;;5042145;28;20611;-73
2022/03/05 06:55:23;;;;;;;9.52;5.95;;;15.70;37.10;14.80;101808.00;;;;5049090;28;20053;-73
2022/03/05 06:58:09;;;;;;;7.85;5.75;;;15.70;37.10;14.80;101823.00;;;;5056176;28;20045;-73
2022/03/05 07:00:55;;;;;;;9.20;5.50;;;15.80;37.20;14.80;101824.00;;;;5046548;28;20067;-73
2022/03/05 07:03:41;;;;;;;9.23;5.90;;;15.80;37.10;14.80;101826.00;;;;5052920;28;20068;-73
2022/03/05 07:06:27;;;;;;;7.95;5.22;;;15.70;37.10;14.80;101826.00;;;;5051456;28;20041;-73
2022/03/05 07:09:14;;;;;;;9.18;5.50;;;15.70;37.10;14.80;101830.00;;;;5053619;28;20508;-73
2022/03/05 07:12:00;;;;;;;8.93;5.68;;;15.70;37.10;14.80;101829.00;;;;5052157;28;20114;-73
2022/03/05 07:14:48;;;;;;;9.73;6.15;;;15.80;37.10;14.80;101827.00;;;;5051480;28;20144;-73
2022/03/05 07:17:34;;;;;;;8.85;5.90;;;15.80;37.10;14.80;101827.00;;;;5053989;28;20549;-73
2022/03/05 07:20:20;;;;;;;10.18;6.35;;;15.70;37.10;14.80;101826.00;;;;5054600;28;20041;-73
2022/03/05 07:23:06;;;;;;;8.27;5.68;;;15.70;37.80;14.80;101837.00;;;;5042838;28;20032;-74
2022/03/05 07:25:53;;;;;;;8.15;5.57;;;15.80;37.10;14.80;101833.00;;;;5062302;28;20048;-73
2022/03/05 07:28:39;;;;;;;8.02;4.82;;;15.70;37.00;14.80;101837.00;;;;5045677;28;20044;-74
2022/03/05 07:31:25;;;;;;;10.52;6.13;;;15.80;37.10;14.80;101844.00;;;;5059852;28;20036;-73
2022/03/05 07:34:11;;;;;;;18.35;6.90;;;15.80;37.10;14.80;101836.00;;;;5056335;28;20044;-73
2022/03/05 07:36:57;;;;;;;18.77;6.85;;;15.80;37.40;14.80;101834.00;;;;5049168;28;20051;-73
2022/03/05 07:39:43;;;;;;;11.93;5.95;;;15.80;37.50;14.80;101847.00;;;;5050574;28;20041;-73
2022/03/05 07:42:29;;;;;;;11.57;6.38;;;15.80;37.50;14.90;101842.00;;;;5059832;28;20040;-73
2022/03/05 07:45:15;;;;;;;10.18;6.20;;;15.80;37.50;14.90;101852.00;;;;5055296;28;20155;-73
2022/03/05 07:48:01;;;;;;;11.68;6.18;;;15.80;37.60;14.90;101847.00;;;;5057291;28;20044;-73
2022/03/05 07:50:48;;;;;;;13.55;5.85;;;15.80;37.50;14.90;101852.00;;;;5047613;28;20390;-73
2022/03/05 07:53:34;;;;;;;9.02;5.45;;;15.80;37.50;14.90;101855.00;;;;5054688;28;20085;-73
2022/03/05 07:56:20;;;;;;;12.23;5.32;;;15.90;37.60;15.00;101862.00;;;;5061526;28;20044;-73
2022/03/05 07:59:07;;;;;;;12.65;5.93;;;15.90;37.50;15.00;101856.00;;;;5051793;28;20125;-72
2022/03/05 08:01:53;;;;;;;9.63;5.85;;;15.90;37.50;15.00;101865.00;;;;5043589;28;20052;-72
2022/03/05 08:04:39;;;;;;;10.48;6.43;;;15.90;37.50;15.00;101865.00;;;;5058245;28;20041;-72
2022/03/05 08:07:26;;;;;;;9.05;6.38;;;15.90;37.60;15.00;101870.00;;;;5042229;28;20120;-72
2022/03/05 08:10:15;;;;;;;10.95;5.70;;;16.00;37.60;15.00;101857.00;;;;5057615;28;20037;-72
2022/03/05 08:13:01;;;;;;;12.32;6.82;;;15.90;37.50;15.00;101861.00;;;;5035547;28;20128;-73
2022/03/05 08:15:48;;;;;;;15.15;6.72;;;16.00;37.60;15.00;101855.00;;;;5055456;28;20045;-73
2022/03/05 08:18:34;;;;;;;13.38;6.38;;;16.00;37.50;15.00;101854.00;;;;5063821;28;20490;-73
2022/03/05 08:21:21;;;;;;;9.30;6.07;;;16.00;37.50;15.00;101872.00;;;;5054531;28;20055;-73
2022/03/05 08:24:07;;;;;;;9.35;6.10;;;16.00;37.50;15.10;101870.00;;;;5060440;28;20051;-73
2022/03/05 08:26:53;;;;;;;15.82;6.22;;;16.00;37.50;15.00;101864.00;;;;5057805;28;20501;-73
2022/03/05 08:29:39;;;;;;;11.90;6.88;;;16.00;37.50;15.10;101862.00;;;;5043540;28;20048;-73
2022/03/05 08:32:25;;;;;;;14.25;6.82;;;16.10;37.50;15.10;101865.00;;;;5060589;28;20037;-74
2022/03/05 08:35:14;;;;;;;12.55;6.05;;;16.10;37.50;15.10;101858.00;;;;5053891;28;20052;-73
2022/03/05 08:38:00;;;;;;;12.13;6.22;;;16.10;37.50;15.10;101860.00;;;;5057845;28;20113;-73
2022/03/05 08:40:46;;;;;;;10.82;6.15;;;16.10;37.50;15.10;101863.00;;;;5041253;28;20501;-73
2022/03/05 08:43:32;;;;;;;15.65;6.93;;;16.10;37.50;15.10;101859.00;;;;5061399;28;20040;-73
2022/03/05 08:46:19;;;;;;;11.65;6.35;;;16.10;37.50;15.10;101860.00;;;;5041578;28;20237;-73
2022/03/05 08:49:05;;;;;;;11.15;6.03;;;16.10;37.50;15.10;101859.00;;;;5042948;28;20044;-73
2022/03/05 08:51:51;;;;;;;16.17;6.50;;;16.20;37.30;15.10;101863.00;;;;5055720;28;20207;-73
2022/03/05 08:54:37;;;;;;;11.95;7.05;;;16.10;37.50;15.20;101869.00;;;;5057145;28;20081;-73
2022/03/05 08:57:23;;;;;;;9.93;6.80;;;16.20;37.50;15.10;101872.00;;;;5046307;28;20249;-73
2022/03/05 09:00:11;;;;;;;11.18;6.93;;;16.20;37.50;15.20;101855.00;;;;5055517;28;20048;-72
2022/03/05 09:02:57;;;;;;;;;;;16.20;37.50;15.10;101855.00;;;;5039584;28;20115;-73
2022/03/05 09:05:44;;;;;;;13.57;6.80;;;16.20;37.50;15.10;101857.00;;;;5055761;28;19924;-73
2022/03/05 09:08:30;;;;;;;12.73;7.15;;;16.20;37.10;15.10;101857.00;;;;5052621;28;20102;-73
2022/03/05 09:11:17;;;;;;;12.23;7.45;;;16.20;37.10;15.10;101858.00;;;;5055694;28;20055;-73
2022/03/05 09:14:06;;;;;;;15.15;8.20;;;16.20;37.20;15.10;101852.00;;;;5061033;28;20106;-73
2022/03/05 09:16:52;;;;;;;13.23;7.03;;;16.20;37.20;15.10;101858.00;;;;5055667;28;20041;-73
2022/03/05 09:19:38;;;;;;;13.98;6.75;;;16.10;37.20;15.10;101857.00;;;;5056958;28;20127;-73
2022/03/05 09:22:24;;;;;;;10.68;6.43;;;16.10;37.20;15.10;101862.00;;;;5056259;28;20049;-73
2022/03/05 09:25:10;;;;;;;14.07;7.43;;;16.10;37.40;15.10;101851.00;;;;5054621;28;20095;-77
2022/03/05 09:27:56;;;;;;;14.80;7.60;;;16.20;37.40;15.10;101858.00;;;;5043500;28;20036;-76
2022/03/05 09:30:42;;;;;;;11.13;6.47;;;16.10;37.40;15.10;101869.00;;;;5047966;28;20028;-76
2022/03/05 09:33:28;;;;;;;11.30;6.97;;;16.20;37.40;15.10;101856.00;;;;5056933;28;20080;-75
2022/03/05 09:36:15;;;;;;;12.50;7.90;;;16.20;37.40;15.20;101858.00;;;;5038329;28;20120;-76
2022/03/05 09:39:02;;;;;;;11.50;7.18;;;16.20;37.50;15.20;101861.00;;;;5029990;28;20481;-76
2022/03/05 09:41:48;;;;;;;15.57;7.10;;;16.20;37.50;15.20;101861.00;;;;5055797;28;20075;-76
2022/03/05 09:44:35;;;;;;;15.35;6.75;;;16.10;37.40;15.20;101871.00;;;;5025685;28;20040;-75
2022/03/05 09:47:22;;;;;;;21.00;8.18;;;16.20;37.40;15.20;101865.00;;;;5052914;28;20037;-75
2022/03/05 09:50:09;;;;;;;18.77;7.53;;;16.20;37.30;15.20;101858.00;;;;5055086;28;20581;-75
2022/03/05 09:52:56;;;;;;;29.90;8.38;;;16.20;37.50;15.20;101861.00;;;;5051456;28;20478;-76
2022/03/05 09:55:42;;;;;;;15.77;8.03;;;16.20;37.50;15.20;101852.00;;;;5059761;28;20482;-76
2022/03/05 09:58:28;;;;;;;18.77;7.93;;;16.20;37.10;15.10;101858.00;;;;5060528;28;20048;-76
2022/03/05 10:01:15;;;;;;;14.35;7.65;;;16.20;37.30;15.20;101865.00;;;;5039423;28;20037;-76
2022/03/05 10:04:02;;;;;;;12.75;6.63;;;16.20;37.40;15.20;101854.00;;;;5047372;28;20113;-76
2022/03/05 10:07:15;;;;;;;18.00;7.60;;;16.30;37.50;15.20;101852.00;;;;5065384;28;20032;-76
2022/03/05 10:10:07;;;;;;;42.40;9.32;;;16.20;37.60;15.20;101854.00;;;;5041977;28;20097;-76
2022/03/05 10:12:54;;;;;;;16.33;6.97;;;16.20;37.50;15.20;101861.00;;;;5059701;28;20117;-76
2022/03/05 10:15:40;;;;;;;17.60;7.32;;;16.20;37.60;15.20;101855.00;;;;5044539;28;20098;-76
2022/03/05 10:18:34;;;;;;;14.35;6.93;;;16.20;37.50;15.20;101857.00;;;;5056740;28;20483;-76
2022/03/05 10:21:30;;;;;;;14.80;7.10;;;16.20;37.60;15.20;101851.00;;;;5063120;28;20052;-75
2022/03/05 10:24:16;;;;;;;14.38;7.28;;;16.30;37.70;15.20;101858.00;;;;5053962;28;20148;-76
2022/03/05 10:27:05;;;;;;;16.58;7.18;;;16.30;37.70;15.20;101862.00;;;;5046430;28;20037;-76
2022/03/05 10:29:54;;;;;;;15.93;6.75;;;16.30;37.70;15.30;101855.00;;;;5042049;28;20049;-76
2022/03/05 10:32:40;;;;;;;16.92;7.20;;;16.30;37.70;15.30;101855.00;;;;5035000;28;20093;-77
2022/03/05 10:35:26;;;;;;;12.90;7.15;;;16.30;37.60;15.30;101857.00;;;;5055942;28;20078;-76
2022/03/05 10:38:12;;;;;;;11.68;6.55;;;16.30;37.60;15.30;101854.00;;;;5053907;28;20052;-76
2022/03/05 10:40:59;;;;;;;9.93;6.75;;;16.30;37.40;15.30;101859.00;;;;5046254;28;20051;-76
2022/03/05 10:44:06;;;;;;;11.43;6.72;;;16.40;37.30;15.30;101849.00;;;;5056192;28;20041;-75
2022/03/05 10:47:02;;;;;;;11.63;6.97;;;16.40;37.30;15.30;101845.00;;;;5055921;28;20112;-76
2022/03/05 10:49:48;;;;;;;11.93;7.07;;;16.40;37.20;15.30;101843.00;;;;5039036;28;20041;-77
2022/03/05 10:53:08;;;;;;;9.98;6.47;;;16.40;37.20;15.30;101853.00;;;;5051556;28;20036;-77
2022/03/05 10:55:54;;;;;;;13.32;6.65;;;16.40;37.10;15.30;101851.00;;;;5053984;28;20071;-76
2022/03/05 10:58:40;;;;;;;11.95;6.40;;;16.40;37.10;15.30;101847.00;;;;5064761;28;20040;-76
2022/03/05 11:01:26;;;;;;;10.55;6.50;;;16.40;37.10;15.30;101840.00;;;;5048931;28;20040;-77
2022/03/05 11:04:12;;;;;;;11.68;6.68;;;16.40;37.10;15.30;101836.00;;;;5058666;28;20059;-77
2022/03/05 11:06:58;;;;;;;9.50;6.25;;;16.40;37.10;15.30;101833.00;;;;5060007;28;20053;-77
2022/03/05 11:09:44;;;;;;;11.82;6.50;;;16.40;37.10;15.30;101829.00;;;;5044429;28;20407;-77
2022/03/05 11:12:30;;;;;;;11.23;6.20;;;16.40;37.10;15.30;101830.00;;;;5047177;28;20044;-77
2022/03/05 11:15:18;;;;;;;12.55;6.65;;;16.40;37.10;15.30;101838.00;;;;5048555;28;20044;-77
2022/03/05 11:18:04;;;;;;;9.32;5.97;;;16.40;37.00;15.30;101831.00;;;;5057381;28;20048;-77
2022/03/05 11:20:50;;;;;;;9.07;6.07;;;16.40;37.00;15.30;101835.00;;;;5042608;28;20049;-77
2022/03/05 11:23:37;;;;;;;9.45;5.78;;;16.40;37.00;15.30;101838.00;;;;5044730;28;20056;-79
2022/03/05 11:26:23;;;;;;;10.90;6.60;;;16.40;37.00;15.30;101827.00;;;;5028805;28;20280;-78
2022/03/05 11:29:10;;;;;;;10.10;6.18;;;16.40;37.00;15.30;101834.00;;;;5033239;28;20098;-78
2022/03/05 11:32:29;;;;;;;11.38;6.35;;;16.40;37.00;15.30;101833.00;;;;5061002;28;20037;-78
2022/03/05 11:35:20;;;;;;;9.60;6.00;;;16.40;37.00;15.30;101823.00;;;;5045786;28;20131;-77
2022/03/05 11:38:06;;;;;;;10.38;6.55;;;16.40;36.90;15.30;101828.00;;;;5045469;28;20107;-76
2022/03/05 11:40:52;;;;;;;10.63;6.68;;;16.40;36.90;15.30;101831.00;;;;5055053;28;20057;-76
2022/03/05 11:43:44;;;;;;;11.18;6.82;;;16.40;36.90;15.40;101819.00;;;;5047223;28;20063;-77
2022/03/05 11:46:30;;;;;;;10.80;6.30;;;16.40;36.90;15.40;101818.00;;;;5053374;28;20771;-76
2022/03/05 11:49:16;;;;;;;9.65;5.93;;;16.40;36.90;15.40;101823.00;;;;5063383;28;20451;-76
2022/03/05 11:52:02;;;;;;;11.02;6.15;;;16.40;36.90;15.40;101815.00;;;;5056630;28;20045;-76
2022/03/05 11:55:22;;;;;;;10.68;6.57;;;16.40;36.90;15.40;101817.00;;;;5052981;28;20052;-77
2022/03/05 11:58:14;;;;;;;10.45;6.03;;;16.40;37.00;15.40;101810.00;;;;5046470;28;20049;-77
2022/03/05 12:01:33;;;;;;;9.75;6.05;;;16.50;37.00;15.40;101817.00;;;;5053127;28;20538;-76
2022/03/05 12:04:28;;;;;;;9.03;5.73;;;16.50;37.00;15.40;101811.00;;;;5048342;28;20044;-77
2022/03/05 12:07:14;;;;;;;8.98;5.78;;;16.50;37.00;15.40;101807.00;;;;5047966;28;20284;-76
2022/03/05 12:10:04;;;;;;;11.43;6.38;;;16.60;37.00;15.40;101805.00;;;;5046319;28;20040;-76
2022/03/05 12:13:01;;;;;;;11.52;6.50;;;16.50;37.00;15.40;101807.00;;;;5054946;28;20091;-77